sensor_id;sensor_type;location;lat;lon;timestamp;P1;durP1;ratioP1;P2;durP2;ratioP2
1204;SDS011;592;48.764;9.174;2022-11-21T00:00:30;3.73;;;0.93;;
1204;SDS011;592;48.764;9.174;2022-11-21T00:02:58;2.73;;;0.83;;
1204;SDS011;592;48.764;9.174;2022-11-21T00:05:27;2.30;;;0.77;;
1204;SDS011;592;48.764;9.174;2022-11-21T00:07:57;3.03;;;0.87;;
1204;SDS011;592;48.764;9.174;2022-11-21T00:10:25;2.50;;;0.87;;
1204;SDS011;592;48.764;9.174;2022-11-21T00:12:52;2.80;;;1.00;;
1204;SDS011;592;48.764;9.174;2022-11-21T00:15:20;2.67;;;0.80;;
1204;SDS011;592;48.764;9.174;2022-11-21T00:17:50;2.43;;;0.70;;
1204;SDS011;592;48.764;9.174;2022-11-21T00:20:19;2.23;;;0.70;;
1204;SDS011;592;48.764;9.174;2022-11-21T00:22:47;2.50;;;0.70;;
1204;SDS011;592;48.764;9.174;2022-11-21T00:25:14;3.00;;;0.80;;
1204;SDS011;592;48.764;9.174;2022-11-21T00:27:42;2.93;;;0.80;;
1204;SDS011;592;48.764;9.174;2022-11-21T00:30:09;2.50;;;0.70;;
1204;SDS011;592;48.764;9.174;2022-11-21T00:32:37;3.20;;;0.90;;
1204;SDS011;592;48.764;9.174;2022-11-21T00:35:06;2.93;;;0.70;;
1204;SDS011;592;48.764;9.174;2022-11-21T00:37:33;2.87;;;0.70;;
1204;SDS011;592;48.764;9.174;2022-11-21T00:40:00;2.20;;;0.60;;
1204;SDS011;592;48.764;9.174;2022-11-21T00:42:28;2.70;;;0.90;;
1204;SDS011;592;48.764;9.174;2022-11-21T00:44:55;2.47;;;0.70;;
1204;SDS011;592;48.764;9.174;2022-11-21T00:47:22;3.53;;;0.90;;
1204;SDS011;592;48.764;9.174;2022-11-21T00:49:49;2.40;;;0.67;;
1204;SDS011;592;48.764;9.174;2022-11-21T00:52:18;2.30;;;0.70;;
1204;SDS011;592;48.764;9.174;2022-11-21T00:54:45;2.60;;;0.80;;
1204;SDS011;592;48.764;9.174;2022-11-21T00:57:12;2.20;;;0.60;;
1204;SDS011;592;48.764;9.174;2022-11-21T00:59:39;2.57;;;0.70;;
1204;SDS011;592;48.764;9.174;2022-11-21T01:02:07;2.80;;;0.90;;
1204;SDS011;592;48.764;9.174;2022-11-21T01:04:34;2.50;;;0.70;;
1204;SDS011;592;48.764;9.174;2022-11-21T01:07:01;2.30;;;0.70;;
1204;SDS011;592;48.764;9.174;2022-11-21T01:09:31;2.20;;;0.70;;
1204;SDS011;592;48.764;9.174;2022-11-21T01:11:58;7.70;;;0.80;;
1204;SDS011;592;48.764;9.174;2022-11-21T01:14:27;2.50;;;0.70;;
1204;SDS011;592;48.764;9.174;2022-11-21T01:16:54;2.43;;;0.60;;
1204;SDS011;592;48.764;9.174;2022-11-21T01:19:21;2.30;;;0.70;;
1204;SDS011;592;48.764;9.174;2022-11-21T01:21:48;2.53;;;0.80;;
1204;SDS011;592;48.764;9.174;2022-11-21T01:24:15;2.70;;;0.70;;
1204;SDS011;592;48.764;9.174;2022-11-21T01:26:44;2.60;;;0.80;;
1204;SDS011;592;48.764;9.174;2022-11-21T01:29:13;3.20;;;0.97;;
1204;SDS011;592;48.764;9.174;2022-11-21T01:31:40;3.70;;;0.90;;
1204;SDS011;592;48.764;9.174;2022-11-21T01:34:06;3.20;;;1.00;;
1204;SDS011;592;48.764;9.174;2022-11-21T01:36:33;2.80;;;0.80;;
1204;SDS011;592;48.764;9.174;2022-11-21T01:39:01;3.50;;;1.00;;
1204;SDS011;592;48.764;9.174;2022-11-21T01:41:30;4.27;;;0.90;;
1204;SDS011;592;48.764;9.174;2022-11-21T01:44:00;3.53;;;0.97;;
1204;SDS011;592;48.764;9.174;2022-11-21T01:46:29;3.50;;;1.00;;
1204;SDS011;592;48.764;9.174;2022-11-21T01:48:56;4.07;;;0.80;;
1204;SDS011;592;48.764;9.174;2022-11-21T01:51:29;4.07;;;1.17;;
1204;SDS011;592;48.764;9.174;2022-11-21T01:53:58;3.80;;;1.80;;
1204;SDS011;592;48.764;9.174;2022-11-21T01:56:32;3.30;;;1.00;;
1204;SDS011;592;48.764;9.174;2022-11-21T01:59:05;2.50;;;0.90;;
1204;SDS011;592;48.764;9.174;2022-11-21T02:01:33;3.40;;;1.10;;
1204;SDS011;592;48.764;9.174;2022-11-21T02:04:01;3.40;;;0.90;;
1204;SDS011;592;48.764;9.174;2022-11-21T02:06:30;3.43;;;1.00;;
1204;SDS011;592;48.764;9.174;2022-11-21T02:09:01;4.20;;;1.00;;
1204;SDS011;592;48.764;9.174;2022-11-21T02:11:29;2.60;;;0.87;;
1204;SDS011;592;48.764;9.174;2022-11-21T02:14:01;3.67;;;1.20;;
1204;SDS011;592;48.764;9.174;2022-11-21T02:16:30;3.60;;;0.90;;
1204;SDS011;592;48.764;9.174;2022-11-21T02:18:58;2.70;;;0.70;;
1204;SDS011;592;48.764;9.174;2022-11-21T02:21:28;2.80;;;0.90;;
1204;SDS011;592;48.764;9.174;2022-11-21T02:24:06;3.63;;;1.00;;
1204;SDS011;592;48.764;9.174;2022-11-21T02:26:40;4.00;;;1.00;;
1204;SDS011;592;48.764;9.174;2022-11-21T02:29:07;4.10;;;1.07;;
1204;SDS011;592;48.764;9.174;2022-11-21T02:31:35;2.80;;;1.00;;
1204;SDS011;592;48.764;9.174;2022-11-21T02:34:02;2.93;;;0.97;;
1204;SDS011;592;48.764;9.174;2022-11-21T02:36:31;2.70;;;1.00;;
1204;SDS011;592;48.764;9.174;2022-11-21T02:39:03;2.60;;;0.87;;
1204;SDS011;592;48.764;9.174;2022-11-21T02:41:31;6.27;;;1.00;;
1204;SDS011;592;48.764;9.174;2022-11-21T02:44:03;2.67;;;0.80;;
1204;SDS011;592;48.764;9.174;2022-11-21T02:46:33;3.07;;;1.10;;
1204;SDS011;592;48.764;9.174;2022-11-21T02:49:00;2.50;;;0.83;;
1204;SDS011;592;48.764;9.174;2022-11-21T02:51:31;3.03;;;0.83;;
1204;SDS011;592;48.764;9.174;2022-11-21T02:53:58;3.43;;;0.90;;
1204;SDS011;592;48.764;9.174;2022-11-21T02:56:25;2.30;;;0.70;;
1204;SDS011;592;48.764;9.174;2022-11-21T02:58:51;2.40;;;0.80;;
1204;SDS011;592;48.764;9.174;2022-11-21T03:01:20;3.17;;;0.90;;
1204;SDS011;592;48.764;9.174;2022-11-21T03:03:46;2.30;;;0.70;;
1204;SDS011;592;48.764;9.174;2022-11-21T03:06:13;3.00;;;0.80;;
1204;SDS011;592;48.764;9.174;2022-11-21T03:08:40;2.67;;;0.73;;
1204;SDS011;592;48.764;9.174;2022-11-21T03:11:07;2.50;;;0.80;;
1204;SDS011;592;48.764;9.174;2022-11-21T03:13:33;2.20;;;0.70;;
1204;SDS011;592;48.764;9.174;2022-11-21T03:16:00;2.40;;;0.67;;
1204;SDS011;592;48.764;9.174;2022-11-21T03:18:28;2.23;;;0.67;;
1204;SDS011;592;48.764;9.174;2022-11-21T03:20:56;2.40;;;0.70;;
1204;SDS011;592;48.764;9.174;2022-11-21T03:23:22;2.27;;;0.70;;
1204;SDS011;592;48.764;9.174;2022-11-21T03:25:49;3.30;;;0.80;;
1204;SDS011;592;48.764;9.174;2022-11-21T03:28:16;2.77;;;1.00;;
1204;SDS011;592;48.764;9.174;2022-11-21T03:30:43;3.03;;;0.70;;
1204;SDS011;592;48.764;9.174;2022-11-21T03:33:09;2.27;;;0.60;;
1204;SDS011;592;48.764;9.174;2022-11-21T03:35:38;2.30;;;0.70;;
1204;SDS011;592;48.764;9.174;2022-11-21T03:38:04;3.00;;;0.80;;
1204;SDS011;592;48.764;9.174;2022-11-21T03:40:31;2.30;;;0.70;;
1204;SDS011;592;48.764;9.174;2022-11-21T03:43:02;2.30;;;0.70;;
1204;SDS011;592;48.764;9.174;2022-11-21T03:45:29;2.20;;;0.70;;
1204;SDS011;592;48.764;9.174;2022-11-21T03:47:56;2.10;;;0.63;;
1204;SDS011;592;48.764;9.174;2022-11-21T03:50:23;2.20;;;0.60;;
1204;SDS011;592;48.764;9.174;2022-11-21T03:52:51;2.60;;;0.70;;
1204;SDS011;592;48.764;9.174;2022-11-21T03:55:18;3.60;;;0.80;;
1204;SDS011;592;48.764;9.174;2022-11-21T03:57:44;2.40;;;0.80;;
1204;SDS011;592;48.764;9.174;2022-11-21T04:00:12;2.20;;;0.70;;
1204;SDS011;592;48.764;9.174;2022-11-21T04:02:39;2.20;;;0.80;;
1204;SDS011;592;48.764;9.174;2022-11-21T04:05:06;2.20;;;0.63;;
1204;SDS011;592;48.764;9.174;2022-11-21T04:07:34;3.90;;;0.80;;
1204;SDS011;592;48.764;9.174;2022-11-21T04:10:02;2.20;;;0.60;;
1204;SDS011;592;48.764;9.174;2022-11-21T04:12:29;3.87;;;0.70;;
1204;SDS011;592;48.764;9.174;2022-11-21T04:14:56;3.47;;;0.80;;
1204;SDS011;592;48.764;9.174;2022-11-21T04:17:22;2.40;;;0.70;;
1204;SDS011;592;48.764;9.174;2022-11-21T04:19:49;3.20;;;0.70;;
1204;SDS011;592;48.764;9.174;2022-11-21T04:22:16;3.17;;;0.80;;
1204;SDS011;592;48.764;9.174;2022-11-21T04:24:43;3.13;;;0.70;;
1204;SDS011;592;48.764;9.174;2022-11-21T04:27:11;2.83;;;0.80;;
1204;SDS011;592;48.764;9.174;2022-11-21T04:29:37;2.47;;;0.80;;
1204;SDS011;592;48.764;9.174;2022-11-21T04:32:04;3.50;;;1.03;;
1204;SDS011;592;48.764;9.174;2022-11-21T04:34:31;2.77;;;0.80;;
1204;SDS011;592;48.764;9.174;2022-11-21T04:36:58;2.80;;;0.80;;
1204;SDS011;592;48.764;9.174;2022-11-21T04:39:24;4.07;;;0.87;;
1204;SDS011;592;48.764;9.174;2022-11-21T04:41:51;4.70;;;1.00;;
1204;SDS011;592;48.764;9.174;2022-11-21T04:44:19;2.70;;;0.83;;
1204;SDS011;592;48.764;9.174;2022-11-21T04:46:46;2.87;;;1.00;;
1204;SDS011;592;48.764;9.174;2022-11-21T04:49:13;3.13;;;0.90;;
1204;SDS011;592;48.764;9.174;2022-11-21T04:51:40;3.47;;;0.93;;
1204;SDS011;592;48.764;9.174;2022-11-21T04:54:06;3.07;;;0.90;;
1204;SDS011;592;48.764;9.174;2022-11-21T04:56:33;2.30;;;0.80;;
1204;SDS011;592;48.764;9.174;2022-11-21T04:59:01;2.90;;;1.00;;
1204;SDS011;592;48.764;9.174;2022-11-21T05:01:29;4.87;;;1.07;;
1204;SDS011;592;48.764;9.174;2022-11-21T05:03:56;3.13;;;0.80;;
1204;SDS011;592;48.764;9.174;2022-11-21T05:06:23;2.83;;;0.90;;
1204;SDS011;592;48.764;9.174;2022-11-21T05:08:49;3.13;;;0.80;;
1204;SDS011;592;48.764;9.174;2022-11-21T05:11:16;2.70;;;0.87;;
1204;SDS011;592;48.764;9.174;2022-11-21T05:14:01;3.67;;;1.20;;
1204;SDS011;592;48.764;9.174;2022-11-21T05:16:29;3.10;;;0.77;;
1204;SDS011;592;48.764;9.174;2022-11-21T05:18:57;2.60;;;0.90;;
1204;SDS011;592;48.764;9.174;2022-11-21T05:21:24;2.70;;;1.07;;
1204;SDS011;592;48.764;9.174;2022-11-21T05:23:51;2.83;;;1.03;;
1204;SDS011;592;48.764;9.174;2022-11-21T05:26:18;2.70;;;0.80;;
1204;SDS011;592;48.764;9.174;2022-11-21T05:28:59;2.80;;;1.00;;
1204;SDS011;592;48.764;9.174;2022-11-21T05:31:33;2.50;;;1.00;;
1204;SDS011;592;48.764;9.174;2022-11-21T05:34:04;3.10;;;0.90;;
1204;SDS011;592;48.764;9.174;2022-11-21T05:36:32;6.10;;;1.20;;
1204;SDS011;592;48.764;9.174;2022-11-21T05:39:03;3.03;;;1.00;;
1204;SDS011;592;48.764;9.174;2022-11-21T05:41:30;2.77;;;1.10;;
1204;SDS011;592;48.764;9.174;2022-11-21T05:43:57;3.30;;;1.10;;
1204;SDS011;592;48.764;9.174;2022-11-21T05:46:24;2.97;;;0.97;;
1204;SDS011;592;48.764;9.174;2022-11-21T05:48:54;3.00;;;1.10;;
1204;SDS011;592;48.764;9.174;2022-11-21T05:51:21;2.83;;;1.03;;
1204;SDS011;592;48.764;9.174;2022-11-21T05:53:49;2.70;;;1.00;;
1204;SDS011;592;48.764;9.174;2022-11-21T05:56:18;2.80;;;0.93;;
1204;SDS011;592;48.764;9.174;2022-11-21T05:58:47;3.00;;;1.13;;
1204;SDS011;592;48.764;9.174;2022-11-21T06:01:21;3.53;;;1.20;;
1204;SDS011;592;48.764;9.174;2022-11-21T06:06:39;4.40;;;1.30;;
1204;SDS011;592;48.764;9.174;2022-11-21T06:09:14;3.83;;;1.20;;
1204;SDS011;592;48.764;9.174;2022-11-21T06:11:41;2.50;;;0.90;;
1204;SDS011;592;48.764;9.174;2022-11-21T06:14:09;3.73;;;1.17;;
1204;SDS011;592;48.764;9.174;2022-11-21T06:16:36;2.77;;;1.00;;
1204;SDS011;592;48.764;9.174;2022-11-21T06:19:03;4.87;;;1.30;;
1204;SDS011;592;48.764;9.174;2022-11-21T06:21:30;3.33;;;1.07;;
1204;SDS011;592;48.764;9.174;2022-11-21T06:27:18;4.03;;;1.07;;
1204;SDS011;592;48.764;9.174;2022-11-21T06:29:45;4.53;;;1.13;;
1204;SDS011;592;48.764;9.174;2022-11-21T06:32:12;3.40;;;1.10;;
1204;SDS011;592;48.764;9.174;2022-11-21T06:34:40;4.93;;;1.50;;
1204;SDS011;592;48.764;9.174;2022-11-21T06:37:07;4.13;;;1.60;;
1204;SDS011;592;48.764;9.174;2022-11-21T06:39:34;5.80;;;1.67;;
1204;SDS011;592;48.764;9.174;2022-11-21T06:42:01;3.80;;;1.97;;
1204;SDS011;592;48.764;9.174;2022-11-21T06:44:31;3.40;;;1.30;;
1204;SDS011;592;48.764;9.174;2022-11-21T06:46:58;4.60;;;1.67;;
1204;SDS011;592;48.764;9.174;2022-11-21T06:49:25;3.43;;;1.77;;
1204;SDS011;592;48.764;9.174;2022-11-21T06:51:54;4.00;;;1.93;;
1204;SDS011;592;48.764;9.174;2022-11-21T06:54:22;3.80;;;1.80;;
1204;SDS011;592;48.764;9.174;2022-11-21T06:57:00;4.23;;;1.70;;
1204;SDS011;592;48.764;9.174;2022-11-21T06:59:33;4.10;;;1.67;;
1204;SDS011;592;48.764;9.174;2022-11-21T07:02:01;4.20;;;1.60;;
1204;SDS011;592;48.764;9.174;2022-11-21T07:04:30;4.57;;;1.77;;
1204;SDS011;592;48.764;9.174;2022-11-21T07:06:59;4.73;;;1.27;;
1204;SDS011;592;48.764;9.174;2022-11-21T07:09:26;5.97;;;2.10;;
1204;SDS011;592;48.764;9.174;2022-11-21T07:11:55;10.50;;;2.00;;
1204;SDS011;592;48.764;9.174;2022-11-21T07:14:44;12.87;;;3.00;;
1204;SDS011;592;48.764;9.174;2022-11-21T07:17:10;4.70;;;1.57;;
1204;SDS011;592;48.764;9.174;2022-11-21T07:19:37;4.90;;;1.60;;
1204;SDS011;592;48.764;9.174;2022-11-21T07:22:04;5.03;;;1.80;;
1204;SDS011;592;48.764;9.174;2022-11-21T07:24:32;4.40;;;1.57;;
1204;SDS011;592;48.764;9.174;2022-11-21T07:27:05;4.27;;;1.43;;
1204;SDS011;592;48.764;9.174;2022-11-21T07:29:32;3.50;;;1.50;;
1204;SDS011;592;48.764;9.174;2022-11-21T07:32:00;7.03;;;3.50;;
1204;SDS011;592;48.764;9.174;2022-11-21T07:34:29;5.60;;;2.60;;
1204;SDS011;592;48.764;9.174;2022-11-21T07:36:56;4.33;;;1.67;;
1204;SDS011;592;48.764;9.174;2022-11-21T07:39:23;3.87;;;1.67;;
1204;SDS011;592;48.764;9.174;2022-11-21T07:41:51;5.53;;;1.43;;
1204;SDS011;592;48.764;9.174;2022-11-21T07:44:22;3.50;;;1.50;;
1204;SDS011;592;48.764;9.174;2022-11-21T07:54:56;7.10;;;1.77;;
1204;SDS011;592;48.764;9.174;2022-11-21T07:57:26;5.17;;;1.97;;
1204;SDS011;592;48.764;9.174;2022-11-21T08:00:06;5.37;;;2.57;;
1204;SDS011;592;48.764;9.174;2022-11-21T08:12:57;7.00;;;2.07;;
1204;SDS011;592;48.764;9.174;2022-11-21T08:15:23;6.00;;;1.97;;
1204;SDS011;592;48.764;9.174;2022-11-21T09:04:28;6.10;;;1.93;;
1204;SDS011;592;48.764;9.174;2022-11-21T09:17:17;7.30;;;2.33;;
1204;SDS011;592;48.764;9.174;2022-11-21T09:20:03;4.80;;;1.80;;
1204;SDS011;592;48.764;9.174;2022-11-21T09:22:31;10.23;;;2.70;;
1204;SDS011;592;48.764;9.174;2022-11-21T09:24:58;6.80;;;2.20;;
1204;SDS011;592;48.764;9.174;2022-11-21T09:27:24;5.27;;;2.03;;
1204;SDS011;592;48.764;9.174;2022-11-21T09:29:53;9.43;;;2.40;;
1204;SDS011;592;48.764;9.174;2022-11-21T09:32:20;5.03;;;1.80;;
1204;SDS011;592;48.764;9.174;2022-11-21T09:34:47;7.87;;;3.37;;
1204;SDS011;592;48.764;9.174;2022-11-21T09:37:16;8.23;;;2.60;;
1204;SDS011;592;48.764;9.174;2022-11-21T09:39:43;4.10;;;1.47;;
1204;SDS011;592;48.764;9.174;2022-11-21T09:42:25;7.37;;;2.50;;
1204;SDS011;592;48.764;9.174;2022-11-21T09:45:07;4.87;;;1.70;;
1204;SDS011;592;48.764;9.174;2022-11-21T09:47:40;5.30;;;1.50;;
1204;SDS011;592;48.764;9.174;2022-11-21T09:50:16;6.77;;;1.80;;
1204;SDS011;592;48.764;9.174;2022-11-21T10:03:12;7.87;;;1.67;;
1204;SDS011;592;48.764;9.174;2022-11-21T10:05:40;4.10;;;1.50;;
1204;SDS011;592;48.764;9.174;2022-11-21T10:28:57;6.73;;;1.90;;
1204;SDS011;592;48.764;9.174;2022-11-21T10:57:24;8.03;;;1.43;;
1204;SDS011;592;48.764;9.174;2022-11-21T10:59:54;7.83;;;1.80;;
1204;SDS011;592;48.764;9.174;2022-11-21T11:33:39;8.63;;;1.83;;
1204;SDS011;592;48.764;9.174;2022-11-21T11:54:19;5.20;;;1.60;;
1204;SDS011;592;48.764;9.174;2022-11-21T12:02:00;5.63;;;1.70;;
1204;SDS011;592;48.764;9.174;2022-11-21T12:04:32;5.53;;;1.53;;
1204;SDS011;592;48.764;9.174;2022-11-21T12:07:11;9.80;;;1.87;;
1204;SDS011;592;48.764;9.174;2022-11-21T12:12:22;6.03;;;2.27;;
1204;SDS011;592;48.764;9.174;2022-11-21T12:14:58;3.43;;;1.30;;
1204;SDS011;592;48.764;9.174;2022-11-21T12:17:54;6.03;;;1.60;;
1204;SDS011;592;48.764;9.174;2022-11-21T12:20:33;5.13;;;1.57;;
1204;SDS011;592;48.764;9.174;2022-11-21T12:23:15;4.70;;;1.40;;
1204;SDS011;592;48.764;9.174;2022-11-21T12:25:48;8.27;;;1.67;;
1204;SDS011;592;48.764;9.174;2022-11-21T12:28:26;10.77;;;1.40;;
1204;SDS011;592;48.764;9.174;2022-11-21T12:31:01;5.00;;;1.67;;
1204;SDS011;592;48.764;9.174;2022-11-21T12:33:32;4.00;;;1.30;;
1204;SDS011;592;48.764;9.174;2022-11-21T12:36:10;4.10;;;1.40;;
1204;SDS011;592;48.764;9.174;2022-11-21T12:41:58;4.63;;;1.53;;
1204;SDS011;592;48.764;9.174;2022-11-21T12:44:56;6.10;;;1.20;;
1204;SDS011;592;48.764;9.174;2022-11-21T12:47:47;8.50;;;1.77;;
1204;SDS011;592;48.764;9.174;2022-11-21T12:50:46;4.07;;;1.50;;
1204;SDS011;592;48.764;9.174;2022-11-21T12:53:37;4.30;;;1.33;;
1204;SDS011;592;48.764;9.174;2022-11-21T12:56:29;5.27;;;1.37;;
1204;SDS011;592;48.764;9.174;2022-11-21T12:59:02;10.67;;;2.20;;
1204;SDS011;592;48.764;9.174;2022-11-21T13:01:32;5.90;;;1.63;;
1204;SDS011;592;48.764;9.174;2022-11-21T13:04:10;8.17;;;1.83;;
1204;SDS011;592;48.764;9.174;2022-11-21T13:06:42;6.80;;;2.47;;
1204;SDS011;592;48.764;9.174;2022-11-21T13:09:12;7.40;;;2.10;;
1204;SDS011;592;48.764;9.174;2022-11-21T13:11:44;6.20;;;1.67;;
1204;SDS011;592;48.764;9.174;2022-11-21T13:14:27;5.50;;;1.60;;
1204;SDS011;592;48.764;9.174;2022-11-21T13:17:17;3.17;;;1.23;;
1204;SDS011;592;48.764;9.174;2022-11-21T13:19:50;4.50;;;1.47;;
1204;SDS011;592;48.764;9.174;2022-11-21T13:25:34;5.97;;;1.90;;
1204;SDS011;592;48.764;9.174;2022-11-21T13:30:58;7.60;;;1.80;;
1204;SDS011;592;48.764;9.174;2022-11-21T13:36:03;9.50;;;3.00;;
1204;SDS011;592;48.764;9.174;2022-11-21T13:59:21;7.87;;;1.93;;
1204;SDS011;592;48.764;9.174;2022-11-21T14:46:11;8.00;;;2.60;;
1204;SDS011;592;48.764;9.174;2022-11-21T15:53:41;8.45;;;3.50;;
1204;SDS011;592;48.764;9.174;2022-11-21T15:56:09;9.40;;;3.60;;
1204;SDS011;592;48.764;9.174;2022-11-21T15:58:37;9.83;;;3.00;;
1204;SDS011;592;48.764;9.174;2022-11-21T16:01:04;6.90;;;3.23;;
1204;SDS011;592;48.764;9.174;2022-11-21T16:03:31;11.10;;;4.00;;
1204;SDS011;592;48.764;9.174;2022-11-21T16:05:58;9.40;;;2.70;;
1204;SDS011;592;48.764;9.174;2022-11-21T16:08:25;6.60;;;2.73;;
1204;SDS011;592;48.764;9.174;2022-11-21T16:10:53;9.70;;;3.00;;
1204;SDS011;592;48.764;9.174;2022-11-21T16:13:19;10.60;;;3.40;;
1204;SDS011;592;48.764;9.174;2022-11-21T16:15:46;10.10;;;2.50;;
1204;SDS011;592;48.764;9.174;2022-11-21T16:31:17;6.60;;;1.90;;
1204;SDS011;592;48.764;9.174;2022-11-21T16:33:45;7.10;;;2.47;;
1204;SDS011;592;48.764;9.174;2022-11-21T16:36:12;10.03;;;3.70;;
1204;SDS011;592;48.764;9.174;2022-11-21T16:51:43;8.53;;;2.53;;
1204;SDS011;592;48.764;9.174;2022-11-21T16:54:11;11.00;;;2.30;;
1204;SDS011;592;48.764;9.174;2022-11-21T16:59:13;6.50;;;2.20;;
1204;SDS011;592;48.764;9.174;2022-11-21T17:01:46;10.47;;;3.00;;
1204;SDS011;592;48.764;9.174;2022-11-21T17:04:17;8.23;;;3.05;;
1204;SDS011;592;48.764;9.174;2022-11-21T17:06:46;6.30;;;2.53;;
1204;SDS011;592;48.764;9.174;2022-11-21T17:26:43;7.65;;;2.90;;
1204;SDS011;592;48.764;9.174;2022-11-21T17:31:48;7.10;;;2.67;;
1204;SDS011;592;48.764;9.174;2022-11-21T17:36:51;6.40;;;2.90;;
1204;SDS011;592;48.764;9.174;2022-11-21T17:49:54;25.20;;;12.93;;
1204;SDS011;592;48.764;9.174;2022-11-21T19:02:43;12.63;;;5.43;;
1204;SDS011;592;48.764;9.174;2022-11-21T21:15:13;12.83;;;4.70;;
